Time;durP1;ratioP1;P1;durP2;ratioP2;P2;SDS_P1;SDS_P2;PMS_P1;PMS_P2;Temp;Humidity;BMP_temperature;BMP_pressure;BME280_temperature;BME280_humidity;BME280_pressure;Samples;Min_cycle;Max_cycle;Signal;HPM_P1;HPM_P2
2024/01/09 00:00:58;;;;;;;119.10;52.53;;;-7.10;81.50;;;;;;5107828;28;20665;-61
2024/01/09 00:03:27;;;;;;;122.07;52.73;;;-6.90;79.30;;;;;;5108052;28;20290;-60
2024/01/09 00:05:55;;;;;;;134.10;53.10;;;-7.00;79.90;;;;;;5108282;28;20213;-62
2024/01/09 00:08:23;;;;;;;120.87;52.70;;;-6.90;81.40;;;;;;5108210;28;20604;-61
2024/01/09 00:10:52;;;;;;;120.97;51.00;;;-7.00;80.70;;;;;;5108060;28;20201;-60
2024/01/09 00:13:20;;;;;;;119.27;52.37;;;-7.00;81.50;;;;;;5107634;28;20193;-60
2024/01/09 00:15:48;;;;;;;120.30;52.00;;;-7.10;84.10;;;;;;5108715;28;20205;-61
2024/01/09 00:18:18;;;;;;;108.53;48.23;;;-7.10;85.40;;;;;;5108255;28;20212;-60
2024/01/09 00:20:46;;;;;;;97.97;46.63;;;-7.00;84.40;;;;;;5108001;28;20394;-61
2024/01/09 00:23:15;;;;;;;97.33;43.60;;;-6.90;83.50;;;;;;5111547;28;20195;-60
2024/01/09 00:25:43;;;;;;;98.97;41.60;;;-7.00;84.80;;;;;;5111762;28;20300;-61
2024/01/09 00:28:11;;;;;;;106.20;42.30;;;-7.10;87.80;;;;;;5111539;28;21005;-61
2024/01/09 00:30:39;;;;;;;93.50;41.63;;;-7.10;85.90;;;;;;5111769;28;20246;-63
2024/01/09 00:33:08;;;;;;;96.17;41.43;;;-6.90;85.50;;;;;;5111656;28;20920;-61
2024/01/09 00:35:37;;;;;;;89.70;43.20;;;-7.00;85.80;;;;;;5111628;28;20220;-61
2024/01/09 00:38:06;;;;;;;91.87;43.50;;;-7.00;87.60;;;;;;5111748;28;20559;-61
2024/01/09 00:40:34;;;;;;;88.00;39.67;;;-7.00;86.20;;;;;;5111451;28;20667;-61
2024/01/09 00:43:02;;;;;;;90.00;42.90;;;-7.10;84.80;;;;;;5110932;28;20193;-62
2024/01/09 00:45:30;;;;;;;103.77;44.10;;;-7.20;87.00;;;;;;5111339;28;20224;-62
2024/01/09 00:47:59;;;;;;;90.50;42.70;;;-7.20;87.10;;;;;;5111616;28;20193;-62
2024/01/09 00:50:28;;;;;;;104.90;45.93;;;-7.20;87.90;;;;;;5103407;28;20196;-61
2024/01/09 00:52:58;;;;;;;101.57;45.17;;;-7.20;88.80;;;;;;5090617;28;20663;-61
2024/01/09 00:55:27;;;;;;;82.70;39.97;;;-7.20;90.40;;;;;;5107046;28;20294;-60
2024/01/09 00:57:55;;;;;;;89.23;41.67;;;-7.20;90.70;;;;;;5108972;28;20205;-60
2024/01/09 01:00:24;;;;;;;87.23;42.67;;;-7.20;90.60;;;;;;5111003;28;20210;-61
2024/01/09 01:02:52;;;;;;;82.27;39.03;;;-7.20;90.50;;;;;;5109955;28;20205;-61
2024/01/09 01:05:21;;;;;;;90.07;38.17;;;-7.00;90.70;;;;;;5110999;28;20222;-62
2024/01/09 01:07:49;;;;;;;76.53;38.03;;;-7.10;90.90;;;;;;5110762;28;20225;-61
2024/01/09 01:10:19;;;;;;;86.80;40.63;;;-7.20;90.90;;;;;;5110587;28;20197;-61
2024/01/09 01:12:48;;;;;;;80.50;36.60;;;-7.20;91.40;;;;;;5110290;28;20673;-61
2024/01/09 01:15:17;;;;;;;78.20;37.23;;;-7.20;92.30;;;;;;5110490;28;20685;-62
2024/01/09 01:17:45;;;;;;;73.03;34.70;;;-7.10;92.70;;;;;;5110803;28;20193;-62
2024/01/09 01:20:14;;;;;;;68.80;33.40;;;-7.10;93.00;;;;;;5110717;28;20213;-63
2024/01/09 01:22:42;;;;;;;80.97;36.30;;;-7.00;92.30;;;;;;5110791;28;20641;-61
2024/01/09 01:25:11;;;;;;;78.63;37.43;;;-7.00;92.80;;;;;;5110461;28;20585;-61
2024/01/09 01:27:41;;;;;;;75.63;35.93;;;-6.90;91.50;;;;;;5109514;28;20197;-61
2024/01/09 01:30:09;;;;;;;76.97;36.83;;;-6.80;90.40;;;;;;5110252;28;20221;-61
2024/01/09 01:32:38;;;;;;;72.10;34.67;;;-6.70;90.40;;;;;;5109212;28;20196;-62
2024/01/09 01:35:07;;;;;;;78.97;35.50;;;-6.60;90.10;;;;;;5110018;28;20735;-61
2024/01/09 01:37:35;;;;;;;70.53;36.37;;;-6.70;90.10;;;;;;5110613;28;20198;-62
2024/01/09 01:40:04;;;;;;;68.27;34.90;;;-6.60;90.30;;;;;;5110017;28;20268;-60
2024/01/09 01:42:32;;;;;;;98.20;42.00;;;-6.50;88.70;;;;;;5109449;28;20189;-60
2024/01/09 01:45:02;;;;;;;90.03;40.17;;;-6.60;86.60;;;;;;5109632;28;20200;-62
2024/01/09 01:47:30;;;;;;;83.70;37.03;;;-6.50;86.80;;;;;;5109918;28;20788;-61
2024/01/09 01:49:59;;;;;;;66.83;34.33;;;-6.40;87.00;;;;;;5110104;28;20192;-60
2024/01/09 01:52:27;;;;;;;65.77;31.77;;;-6.30;85.60;;;;;;5110554;28;20271;-61
2024/01/09 01:54:56;;;;;;;64.60;30.97;;;-6.30;85.60;;;;;;5110191;28;20218;-62
2024/01/09 01:57:24;;;;;;;62.93;29.20;;;-6.40;86.70;;;;;;5109496;28;20236;-60
2024/01/09 01:59:53;;;;;;;59.37;27.67;;;-6.30;86.40;;;;;;5109737;28;20217;-60
2024/01/09 02:02:23;;;;;;;56.60;29.73;;;-6.30;86.70;;;;;;5110000;28;20298;-61
2024/01/09 02:04:52;;;;;;;62.33;29.40;;;-6.50;87.50;;;;;;5109901;28;20312;-61
2024/01/09 02:07:24;;;;;;;57.47;27.10;;;-6.50;89.00;;;;;;5109988;28;20233;-62
2024/01/09 02:09:54;;;;;;;61.73;29.33;;;-6.70;89.70;;;;;;5109974;28;20749;-62
2024/01/09 02:12:22;;;;;;;63.27;28.77;;;-6.60;91.20;;;;;;5109991;28;20787;-64
2024/01/09 02:14:50;;;;;;;68.50;28.80;;;-6.60;91.50;;;;;;5110736;28;20228;-62
2024/01/09 02:17:19;;;;;;;58.80;30.77;;;-6.60;91.70;;;;;;5110369;28;20198;-63
2024/01/09 02:19:48;;;;;;;61.07;29.30;;;-6.40;91.20;;;;;;5109947;28;20189;-63
2024/01/09 02:22:19;;;;;;;66.97;32.07;;;-6.40;91.00;;;;;;5109976;28;20196;-63
2024/01/09 02:24:47;;;;;;;68.00;32.53;;;-6.40;90.90;;;;;;5109911;28;20692;-63
2024/01/09 02:27:25;;;;;;;63.00;31.33;;;-6.50;91.30;;;;;;5109898;28;20229;-62
2024/01/09 02:29:55;;;;;;;66.50;33.27;;;-6.50;91.60;;;;;;5109680;28;20225;-64
2024/01/09 02:32:24;;;;;;;65.83;32.07;;;-6.40;92.40;;;;;;5109286;28;20235;-60
2024/01/09 02:34:53;;;;;;;57.67;30.10;;;-6.50;92.30;;;;;;5109051;28;20589;-61
2024/01/09 02:37:21;;;;;;;55.73;28.40;;;-6.50;92.30;;;;;;5110040;28;20196;-62
2024/01/09 02:39:49;;;;;;;64.90;30.40;;;-6.40;92.10;;;;;;5109289;28;20225;-61
2024/01/09 02:42:18;;;;;;;57.77;29.50;;;-6.40;92.30;;;;;;5109658;28;20196;-61
2024/01/09 02:44:46;;;;;;;61.80;29.13;;;-6.40;92.10;;;;;;5109128;28;20550;-62
2024/01/09 02:47:16;;;;;;;52.63;27.60;;;-6.30;92.40;;;;;;5109596;28;20260;-62
2024/01/09 02:49:44;;;;;;;55.30;28.63;;;-6.30;92.40;;;;;;5109470;28;20618;-62
2024/01/09 02:52:12;;;;;;;55.70;27.33;;;-6.30;91.80;;;;;;5109519;28;20288;-61
2024/01/09 02:54:41;;;;;;;50.87;26.67;;;-6.20;92.10;;;;;;5109288;28;20631;-62
2024/01/09 02:57:09;;;;;;;59.80;25.57;;;-6.30;92.70;;;;;;5108757;28;20192;-62
2024/01/09 02:59:38;;;;;;;58.07;25.07;;;-6.30;92.90;;;;;;5108833;28;20212;-62
2024/01/09 03:02:07;;;;;;;48.17;23.73;;;-6.30;93.30;;;;;;5109582;28;20641;-63
2024/01/09 03:04:36;;;;;;;47.27;24.77;;;-6.30;93.70;;;;;;5109468;28;20194;-62
2024/01/09 03:07:05;;;;;;;55.07;23.87;;;-6.10;92.60;;;;;;5109215;28;20701;-61
2024/01/09 03:09:33;;;;;;;42.77;21.67;;;-6.20;92.80;;;;;;5109252;28;20202;-62
2024/01/09 03:12:03;;;;;;;51.30;23.27;;;-6.20;92.90;;;;;;5109272;28;20195;-62
2024/01/09 03:14:31;;;;;;;48.07;22.27;;;-6.20;93.40;;;;;;5109005;28;20665;-61
2024/01/09 03:16:59;;;;;;;39.07;20.90;;;-6.10;92.40;;;;;;5108721;28;20194;-63
2024/01/09 03:19:28;;;;;;;45.33;23.37;;;-6.10;92.70;;;;;;5109041;28;20202;-60
2024/01/09 03:21:57;;;;;;;50.00;24.30;;;-6.10;93.30;;;;;;5108869;28;20196;-63
2024/01/09 03:24:26;;;;;;;52.67;25.23;;;-6.10;93.80;;;;;;5106938;28;20201;-62
2024/01/09 03:26:54;;;;;;;51.13;26.57;;;-6.10;93.90;;;;;;5108621;28;20224;-61
2024/01/09 03:29:22;;;;;;;48.70;24.53;;;-6.10;94.60;;;;;;5108710;28;20196;-62
2024/01/09 03:31:51;;;;;;;51.60;26.37;;;-6.00;95.80;;;;;;5108590;28;20201;-61
2024/01/09 03:34:19;;;;;;;51.03;25.43;;;-6.00;96.70;;;;;;5108765;28;20237;-62
2024/01/09 03:36:47;;;;;;;49.63;22.87;;;-6.00;96.00;;;;;;5108462;28;20207;-61
2024/01/09 03:39:17;;;;;;;43.73;21.93;;;-5.90;97.30;;;;;;5108540;28;20629;-61
2024/01/09 03:41:46;;;;;;;42.57;21.23;;;-5.90;97.50;;;;;;5108546;28;20631;-62
2024/01/09 03:44:14;;;;;;;36.30;18.07;;;-5.90;99.50;;;;;;5108709;28;20200;-62
2024/01/09 03:46:43;;;;;;;33.13;18.83;;;-5.80;99.90;;;;;;5108358;28;20223;-64
2024/01/09 03:49:12;;;;;;;32.67;17.50;;;-5.80;99.90;;;;;;5107045;28;20209;-62
2024/01/09 03:51:40;;;;;;;29.73;16.83;;;-5.70;99.90;;;;;;5109234;28;20201;-63
2024/01/09 03:54:09;;;;;;;28.87;16.13;;;-5.50;99.90;;;;;;5108680;28;20200;-61
2024/01/09 03:56:38;;;;;;;24.40;12.27;;;-5.50;99.90;;;;;;5110466;28;20193;-62
2024/01/09 03:59:07;;;;;;;21.37;13.07;;;-5.50;99.90;;;;;;5112599;28;20685;-63
2024/01/09 04:01:35;;;;;;;21.40;12.80;;;-5.30;99.90;;;;;;5112357;28;20263;-62
2024/01/09 04:04:04;;;;;;;24.07;12.23;;;-5.30;99.90;;;;;;5112659;28;20285;-61
2024/01/09 04:06:32;;;;;;;24.67;12.50;;;-5.20;99.90;;;;;;5112384;28;20198;-62
2024/01/09 04:09:01;;;;;;;25.57;12.50;;;-5.10;99.90;;;;;;5112693;28;20266;-63
2024/01/09 04:11:29;;;;;;;21.23;11.77;;;-5.10;99.90;;;;;;5112556;28;20194;-62
2024/01/09 04:13:59;;;;;;;22.77;13.00;;;-5.00;99.90;;;;;;5110803;28;20216;-61
2024/01/09 04:16:27;;;;;;;18.87;10.27;;;-4.90;99.90;;;;;;5112890;28;20206;-61
2024/01/09 04:18:55;;;;;;;20.77;11.53;;;-4.90;99.90;;;;;;5112775;28;20192;-60
2024/01/09 04:21:24;;;;;;;19.80;10.87;;;-4.70;99.90;;;;;;5112383;28;20291;-60
2024/01/09 04:23:52;;;;;;;15.27;10.07;;;-4.70;99.90;;;;;;5112344;28;20256;-60
2024/01/09 04:26:20;;;;;;;20.20;9.97;;;-4.70;99.90;;;;;;5112073;28;20376;-62
2024/01/09 04:28:48;;;;;;;14.90;8.70;;;-4.70;99.90;;;;;;5112159;28;20330;-61
2024/01/09 04:31:18;;;;;;;16.93;9.20;;;-4.60;99.90;;;;;;5111994;28;20191;-60
2024/01/09 04:33:46;;;;;;;16.10;8.67;;;-4.40;99.90;;;;;;5112010;28;20623;-61
2024/01/09 04:36:17;;;;;;;18.00;10.33;;;-4.50;99.90;;;;;;5111910;28;20193;-63
2024/01/09 04:38:47;;;;;;;14.93;9.10;;;-4.40;99.90;;;;;;5111105;28;20667;-61
2024/01/09 04:41:16;;;;;;;14.67;9.10;;;-4.40;99.90;;;;;;5109397;28;20279;-62
2024/01/09 04:43:47;;;;;;;16.23;8.23;;;-4.40;99.90;;;;;;5112005;28;20199;-60
2024/01/09 04:46:15;;;;;;;15.37;8.00;;;-4.50;99.90;;;;;;5111615;28;21019;-59
2024/01/09 04:48:45;;;;;;;14.93;9.30;;;-4.40;99.90;;;;;;5111780;28;20216;-62
2024/01/09 04:51:13;;;;;;;13.83;8.97;;;-4.30;99.90;;;;;;5111502;28;20199;-62
2024/01/09 04:53:41;;;;;;;13.93;8.07;;;-4.30;99.90;;;;;;5111565;28;20211;-61
2024/01/09 04:56:10;;;;;;;12.50;7.47;;;-4.30;99.90;;;;;;5111722;28;20199;-62
2024/01/09 04:58:38;;;;;;;10.93;7.67;;;-4.30;99.90;;;;;;5111376;28;20197;-62
2024/01/09 05:01:11;;;;;;;15.47;8.23;;;-4.20;99.90;;;;;;5111233;28;20603;-62
2024/01/09 05:03:39;;;;;;;15.20;8.67;;;-4.10;99.90;;;;;;5111553;28;20237;-61
2024/01/09 05:06:09;;;;;;;17.67;9.10;;;-4.00;99.90;;;;;;5110033;28;20195;-62
2024/01/09 05:08:37;;;;;;;24.47;12.07;;;-3.80;99.90;;;;;;5111562;28;20321;-62
2024/01/09 05:11:05;;;;;;;20.60;10.13;;;-3.90;99.90;;;;;;5110895;28;20190;-62
2024/01/09 05:13:34;;;;;;;19.13;11.70;;;-3.90;99.90;;;;;;5110550;28;20194;-68
2024/01/09 05:16:02;;;;;;;18.13;9.60;;;-3.90;99.90;;;;;;5110619;28;20562;-62
2024/01/09 05:18:30;;;;;;;21.30;10.87;;;-3.90;99.90;;;;;;5110559;28;20192;-62
2024/01/09 05:20:59;;;;;;;23.27;11.03;;;-3.80;99.90;;;;;;5110374;28;20188;-62
2024/01/09 05:23:28;;;;;;;16.63;10.63;;;-3.80;99.90;;;;;;5110815;28;20200;-60
2024/01/09 05:25:57;;;;;;;15.90;10.23;;;-3.80;99.90;;;;;;5110674;28;20203;-62
2024/01/09 05:28:25;;;;;;;14.63;9.73;;;-3.80;99.90;;;;;;5110596;28;20709;-62
2024/01/09 05:30:53;;;;;;;15.33;9.07;;;-3.80;99.90;;;;;;5109036;28;20203;-62
2024/01/09 05:33:22;;;;;;;15.27;9.23;;;-3.90;99.90;;;;;;5111112;28;20207;-62
2024/01/09 05:35:50;;;;;;;15.40;9.10;;;-4.00;99.90;;;;;;5110990;28;20196;-62
2024/01/09 05:38:18;;;;;;;15.83;9.43;;;-4.00;99.90;;;;;;5110947;28;20199;-62
2024/01/09 05:40:48;;;;;;;14.87;8.67;;;-3.80;99.90;;;;;;5110666;28;20272;-62
2024/01/09 05:43:16;;;;;;;15.17;8.57;;;-3.80;99.90;;;;;;5110874;28;20844;-61
2024/01/09 05:45:45;;;;;;;16.93;9.90;;;-3.90;99.90;;;;;;5110724;28;20195;-62
2024/01/09 05:48:13;;;;;;;13.30;8.97;;;-3.70;99.90;;;;;;5110350;28;20227;-60
2024/01/09 05:50:41;;;;;;;16.53;9.40;;;-3.60;99.90;;;;;;5110877;28;20196;-60
2024/01/09 05:53:10;;;;;;;16.80;10.00;;;-3.50;99.90;;;;;;5110700;28;20195;-61
2024/01/09 05:55:38;;;;;;;16.83;9.77;;;-3.40;99.90;;;;;;5108701;28;20615;-60
2024/01/09 05:58:08;;;;;;;14.37;9.63;;;-3.20;99.90;;;;;;5111236;28;20207;-62
2024/01/09 06:00:36;;;;;;;15.93;9.50;;;-3.00;99.90;;;;;;5110702;28;20260;-63
2024/01/09 06:03:05;;;;;;;17.13;9.83;;;-2.90;99.90;;;;;;5110258;28;20302;-62
2024/01/09 06:05:33;;;;;;;20.37;11.20;;;-2.70;99.90;;;;;;5110398;28;20278;-62
2024/01/09 06:08:02;;;;;;;20.17;11.47;;;-2.70;99.90;;;;;;5110362;28;20302;-61
2024/01/09 06:10:30;;;;;;;20.97;10.93;;;-2.60;99.90;;;;;;5110666;28;20205;-61
2024/01/09 06:12:58;;;;;;;19.10;10.60;;;-2.50;99.90;;;;;;5110481;28;20272;-62
2024/01/09 06:15:28;;;;;;;19.63;11.57;;;-2.40;99.90;;;;;;5110395;28;20192;-62
2024/01/09 06:17:56;;;;;;;15.80;10.17;;;-2.40;99.90;;;;;;5110215;28;20195;-62
2024/01/09 06:20:25;;;;;;;15.00;9.13;;;-2.40;99.90;;;;;;5108411;28;20188;-62
2024/01/09 06:22:53;;;;;;;17.00;10.27;;;-2.40;99.90;;;;;;5110177;28;20283;-60
2024/01/09 06:25:21;;;;;;;15.40;9.63;;;-2.40;99.90;;;;;;5110409;28;20191;-61
2024/01/09 06:27:50;;;;;;;27.97;16.00;;;-2.30;99.90;;;;;;5110161;28;20718;-60
2024/01/09 06:30:18;;;;;;;26.40;16.97;;;-2.30;99.90;;;;;;5110117;28;20260;-62
2024/01/09 06:32:48;;;;;;;22.17;12.03;;;-2.20;99.90;;;;;;5109709;28;20279;-62
2024/01/09 06:35:16;;;;;;;16.90;10.57;;;-2.20;99.90;;;;;;5091506;28;20638;-62
2024/01/09 06:37:45;;;;;;;17.13;10.77;;;-2.20;99.90;;;;;;5109611;28;20207;-61
2024/01/09 06:40:13;;;;;;;18.47;10.10;;;-2.00;99.90;;;;;;5109568;28;20241;-60
2024/01/09 06:42:41;;;;;;;13.27;8.33;;;-2.10;99.90;;;;;;5109703;28;20195;-61
2024/01/09 06:45:10;;;;;;;20.17;9.40;;;-2.10;99.90;;;;;;5109653;28;20191;-61
2024/01/09 06:47:40;;;;;;;17.93;10.10;;;-2.20;99.90;;;;;;5108011;28;20215;-61
2024/01/09 06:50:10;;;;;;;16.40;9.27;;;-2.30;99.90;;;;;;5109860;28;20709;-60
2024/01/09 06:52:47;;;;;;;17.20;9.27;;;-2.50;99.90;;;;;;5109788;28;20195;-61
2024/01/09 06:55:16;;;;;;;15.27;8.90;;;-2.50;99.90;;;;;;5109524;28;20215;-62
2024/01/09 06:57:44;;;;;;;14.17;8.33;;;-2.50;99.90;;;;;;5109471;28;20203;-60
2024/01/09 07:00:13;;;;;;;18.47;9.83;;;-2.50;99.90;;;;;;5109532;28;20202;-60
2024/01/09 07:02:42;;;;;;;13.97;7.73;;;-2.50;99.90;;;;;;5109440;28;20211;-61
2024/01/09 07:05:12;;;;;;;13.43;9.17;;;-2.50;99.90;;;;;;5109553;28;20195;-62
2024/01/09 07:07:40;;;;;;;12.13;8.63;;;-2.50;99.90;;;;;;5109436;28;20183;-61
2024/01/09 07:10:13;;;;;;;14.77;8.83;;;-2.50;99.90;;;;;;5109335;28;20212;-61
2024/01/09 07:12:41;;;;;;;12.60;8.80;;;-2.50;99.90;;;;;;5107709;28;20241;-61
2024/01/09 07:15:13;;;;;;;13.70;8.40;;;-2.40;99.90;;;;;;5109841;28;20552;-62
2024/01/09 07:17:42;;;;;;;16.47;8.77;;;-2.40;99.90;;;;;;5109139;28;20956;-61
2024/01/09 07:20:12;;;;;;;13.50;8.80;;;-2.30;99.90;;;;;;5109224;28;20256;-60
2024/01/09 07:22:41;;;;;;;16.47;9.70;;;-2.20;99.90;;;;;;5109849;28;20187;-62
2024/01/09 07:25:13;;;;;;;15.57;9.40;;;-2.10;99.90;;;;;;5109434;28;20194;-62
2024/01/09 07:27:42;;;;;;;17.07;9.47;;;-2.00;99.90;;;;;;5109293;28;20198;-62
2024/01/09 07:30:11;;;;;;;13.50;8.93;;;-1.90;99.90;;;;;;5109261;28;20223;-61
2024/01/09 07:32:40;;;;;;;17.00;9.63;;;-1.70;99.90;;;;;;5108998;28;20192;-62
2024/01/09 07:35:09;;;;;;;14.37;8.57;;;-1.60;99.90;;;;;;5109274;28;20199;-61
2024/01/09 07:37:38;;;;;;;11.80;8.07;;;-1.70;99.90;;;;;;5107448;28;20191;-60
2024/01/09 07:40:08;;;;;;;14.23;8.00;;;-1.60;99.90;;;;;;5109516;28;20246;-60
2024/01/09 07:42:36;;;;;;;15.40;9.23;;;-1.80;99.90;;;;;;5108944;28;20203;-62
2024/01/09 07:45:11;;;;;;;13.60;8.77;;;-2.00;99.90;;;;;;5108984;28;20187;-61
2024/01/09 07:47:39;;;;;;;12.97;7.80;;;-1.90;99.90;;;;;;5108880;28;20245;-62
2024/01/09 07:50:08;;;;;;;14.27;9.43;;;-1.90;99.90;;;;;;5108706;28;20229;-61
2024/01/09 07:52:38;;;;;;;15.80;9.33;;;-1.80;99.90;;;;;;5109180;28;20856;-62
2024/01/09 07:55:06;;;;;;;14.57;9.20;;;-1.80;99.90;;;;;;5109239;28;20194;-62
2024/01/09 07:57:35;;;;;;;15.43;9.00;;;-1.80;99.90;;;;;;5108959;28;20196;-61
2024/01/09 08:00:04;;;;;;;16.20;9.40;;;-1.70;99.90;;;;;;5109062;28;20596;-62
2024/01/09 08:02:38;;;;;;;18.23;10.63;;;-1.60;99.90;;;;;;5106987;28;20282;-62
2024/01/09 08:05:07;;;;;;;14.53;9.27;;;-1.70;99.90;;;;;;5109297;28;20191;-62
2024/01/09 08:07:36;;;;;;;15.13;9.37;;;-1.90;99.90;;;;;;5108911;28;20552;-61
2024/01/09 08:10:07;;;;;;;15.50;9.57;;;-1.80;99.90;;;;;;5108611;28;20219;-62
2024/01/09 08:12:35;;;;;;;15.53;8.93;;;-1.70;99.90;;;;;;5108757;28;20203;-61
2024/01/09 08:15:04;;;;;;;15.13;9.00;;;-1.50;99.90;;;;;;5108652;28;20200;-61
2024/01/09 08:17:32;;;;;;;17.67;9.30;;;-1.50;99.90;;;;;;5108550;28;20250;-61
2024/01/09 08:20:03;;;;;;;17.97;9.77;;;-1.50;99.90;;;;;;5108463;28;20223;-62
2024/01/09 08:22:32;;;;;;;14.87;9.40;;;-1.50;99.90;;;;;;5108607;28;20196;-62
2024/01/09 08:25:00;;;;;;;20.60;10.00;;;-1.50;99.90;;;;;;5108678;28;20194;-61
2024/01/09 08:27:30;;;;;;;13.37;9.47;;;-1.40;99.90;;;;;;5088791;28;20282;-61
2024/01/09 08:29:58;;;;;;;22.10;12.23;;;-1.30;99.90;;;;;;5108590;28;20957;-62
2024/01/09 08:32:27;;;;;;;19.83;11.60;;;-1.30;99.90;;;;;;5109283;28;20210;-61
2024/01/09 08:34:55;;;;;;;16.83;9.50;;;-1.30;99.90;;;;;;5108565;28;20695;-62
2024/01/09 08:37:24;;;;;;;15.80;10.40;;;-1.30;99.90;;;;;;5108732;28;20201;-62
2024/01/09 08:39:52;;;;;;;15.73;9.67;;;-1.20;99.90;;;;;;5108498;28;20713;-61
2024/01/09 08:42:21;;;;;;;15.03;9.07;;;-1.30;99.90;;;;;;5110101;28;20188;-60
2024/01/09 08:44:51;;;;;;;12.77;9.47;;;-1.40;99.90;;;;;;5112393;28;20199;-61
2024/01/09 08:47:19;;;;;;;18.60;8.70;;;-1.30;99.90;;;;;;5112228;28;21034;-61
2024/01/09 08:49:48;;;;;;;13.37;8.93;;;-1.20;99.90;;;;;;5111888;28;20215;-61
2024/01/09 08:52:21;;;;;;;15.40;10.03;;;-1.20;99.90;;;;;;5111582;28;20191;-60
2024/01/09 08:54:49;;;;;;;14.00;9.17;;;-1.30;99.90;;;;;;5111607;28;20198;-61
2024/01/09 08:57:18;;;;;;;15.33;9.30;;;-1.20;99.90;;;;;;5112441;28;20220;-62
2024/01/09 08:59:46;;;;;;;14.43;9.70;;;-1.20;99.90;;;;;;5112196;28;20219;-62
2024/01/09 09:02:16;;;;;;;13.80;9.10;;;-1.20;99.90;;;;;;5111902;28;20369;-62
2024/01/09 09:04:44;;;;;;;13.27;8.27;;;-1.10;99.90;;;;;;5111748;28;20199;-61
2024/01/09 09:07:12;;;;;;;11.50;8.30;;;-1.10;99.90;;;;;;5111871;28;20203;-61
2024/01/09 09:09:41;;;;;;;13.23;8.23;;;-1.20;99.90;;;;;;5111717;28;20223;-61
2024/01/09 09:12:09;;;;;;;13.40;9.20;;;-1.20;99.90;;;;;;5111552;28;20199;-62
2024/01/09 09:14:38;;;;;;;16.37;8.80;;;-1.20;99.90;;;;;;5111726;28;20629;-62
2024/01/09 09:17:08;;;;;;;13.13;8.23;;;-1.10;99.90;;;;;;5111748;28;20187;-62
2024/01/09 09:19:37;;;;;;;16.23;8.33;;;-1.20;99.90;;;;;;5109877;28;20199;-62
2024/01/09 09:22:06;;;;;;;14.43;8.57;;;-1.20;99.90;;;;;;5112049;28;20298;-62
2024/01/09 09:24:34;;;;;;;14.17;8.53;;;-1.00;99.90;;;;;;5111341;28;20208;-61
2024/01/09 09:27:02;;;;;;;14.73;9.50;;;-1.20;99.90;;;;;;5111453;28;20221;-62
2024/01/09 09:29:31;;;;;;;17.43;9.70;;;-1.10;99.90;;;;;;5111300;28;20622;-62
2024/01/09 09:32:04;;;;;;;12.33;8.83;;;-0.90;99.90;;;;;;5111333;28;20523;-62
2024/01/09 09:34:33;;;;;;;13.07;9.20;;;-0.90;99.90;;;;;;5111056;28;20688;-61
2024/01/09 09:37:02;;;;;;;13.53;9.13;;;-0.90;99.90;;;;;;5111153;28;20248;-62
2024/01/09 09:39:31;;;;;;;16.73;9.83;;;-0.90;99.90;;;;;;5111116;28;20292;-62
2024/01/09 09:41:59;;;;;;;13.30;9.13;;;-0.80;99.90;;;;;;5111242;28;20203;-62
2024/01/09 09:44:28;;;;;;;15.63;10.23;;;-0.80;99.90;;;;;;5109481;28;20215;-62
2024/01/09 09:46:56;;;;;;;15.57;10.47;;;-0.70;99.90;;;;;;5111715;28;20195;-62
2024/01/09 09:49:25;;;;;;;16.70;9.50;;;-0.80;99.90;;;;;;5110992;28;20553;-63
2024/01/09 09:51:54;;;;;;;14.97;10.43;;;-0.90;99.90;;;;;;5110629;28;20264;-63
2024/01/09 09:54:25;;;;;;;14.03;10.60;;;-0.90;99.90;;;;;;5109830;28;20230;-62
2024/01/09 09:56:54;;;;;;;19.10;10.83;;;-0.80;99.90;;;;;;5111130;28;20195;-63
2024/01/09 09:59:22;;;;;;;17.47;10.00;;;-0.80;99.90;;;;;;5111074;28;20270;-62
2024/01/09 10:01:52;;;;;;;18.13;10.63;;;-0.80;99.90;;;;;;5110924;28;20617;-63
2024/01/09 10:04:29;;;;;;;16.67;10.50;;;-0.70;99.90;;;;;;5110743;28;20191;-62
2024/01/09 10:06:58;;;;;;;14.53;9.63;;;-0.60;99.90;;;;;;5110928;28;20193;-63
2024/01/09 10:09:34;;;;;;;19.40;11.53;;;-0.60;99.90;;;;;;5109232;28;20199;-62
2024/01/09 10:12:03;;;;;;;21.30;11.10;;;-0.60;99.90;;;;;;5111323;28;20215;-61
2024/01/09 10:14:31;;;;;;;19.97;10.77;;;-0.60;99.90;;;;;;5110592;28;20202;-61
2024/01/09 10:17:03;;;;;;;19.13;11.73;;;-0.50;99.90;;;;;;5110645;28;20203;-61
2024/01/09 10:19:32;;;;;;;19.83;11.37;;;-0.40;99.90;;;;;;5110688;28;20192;-62
2024/01/09 10:22:00;;;;;;;20.37;13.40;;;-0.30;99.90;;;;;;5110956;28;20199;-61
2024/01/09 10:24:30;;;;;;;18.53;12.07;;;-0.20;99.90;;;;;;5110723;28;20279;-62
2024/01/09 10:26:58;;;;;;;16.20;10.93;;;-0.30;99.90;;;;;;5110445;28;20203;-62
2024/01/09 10:29:27;;;;;;;18.33;10.63;;;-0.30;99.90;;;;;;5110671;28;20227;-62
2024/01/09 10:31:55;;;;;;;19.43;11.53;;;-0.20;99.90;;;;;;5110117;28;20215;-61
2024/01/09 10:34:24;;;;;;;18.53;12.00;;;-0.10;99.90;;;;;;5108652;28;20191;-62
2024/01/09 10:36:53;;;;;;;21.10;12.07;;;-0.20;99.90;;;;;;5110654;28;20665;-62
2024/01/09 10:39:21;;;;;;;21.70;12.40;;;-0.30;99.90;;;;;;5110020;28;20211;-62
2024/01/09 10:41:51;;;;;;;21.37;11.17;;;-0.30;99.90;;;;;;5110004;28;20200;-62
2024/01/09 10:44:20;;;;;;;21.03;12.37;;;-0.30;99.90;;;;;;5109812;28;20195;-62
2024/01/09 10:46:50;;;;;;;20.10;12.47;;;-0.20;99.90;;;;;;5110261;28;20195;-62
2024/01/09 10:49:19;;;;;;;23.10;12.93;;;-0.10;99.90;;;;;;5109799;28;20195;-63
2024/01/09 10:51:52;;;;;;;20.63;13.20;;;0.00;99.90;;;;;;5109442;28;20211;-63
2024/01/09 10:54:22;;;;;;;24.27;13.03;;;0.00;99.90;;;;;;5109761;28;20202;-62
2024/01/09 10:56:53;;;;;;;24.57;14.60;;;-0.10;99.90;;;;;;5109799;28;20187;-63
2024/01/09 10:59:23;;;;;;;26.43;14.33;;;-0.20;99.90;;;;;;5108716;28;20207;-62
2024/01/09 11:01:52;;;;;;;23.10;13.47;;;-0.10;99.90;;;;;;5109342;28;20245;-63
2024/01/09 11:04:20;;;;;;;19.90;12.33;;;0.00;99.90;;;;;;5109624;28;20215;-63
2024/01/09 11:06:50;;;;;;;19.20;13.00;;;0.10;99.90;;;;;;5109681;28;20673;-63
2024/01/09 11:09:20;;;;;;;17.93;12.00;;;0.10;99.90;;;;;;5109693;28;20279;-63
2024/01/09 11:11:51;;;;;;;18.73;11.80;;;0.30;99.90;;;;;;5109603;28;20208;-63
2024/01/09 11:14:21;;;;;;;17.87;11.10;;;0.40;99.90;;;;;;5109734;28;20203;-63
2024/01/09 11:16:52;;;;;;;16.67;11.40;;;0.60;99.90;;;;;;5109759;28;20206;-63
2024/01/09 11:19:21;;;;;;;19.43;11.87;;;0.60;99.90;;;;;;5109382;28;20310;-62
2024/01/09 11:21:50;;;;;;;17.10;11.27;;;0.70;99.90;;;;;;5109305;28;20220;-63
2024/01/09 11:24:25;;;;;;;19.23;11.10;;;0.70;99.90;;;;;;5109305;28;20218;-63
2024/01/09 11:27:12;;;;;;;19.60;11.57;;;0.90;99.90;;;;;;5106781;28;20200;-63
2024/01/09 11:29:54;;;;;;;18.03;11.07;;;1.00;99.90;;;;;;5110016;28;20283;-63
2024/01/09 11:32:27;;;;;;;21.53;11.53;;;0.90;99.90;;;;;;5109710;28;20212;-63
2024/01/09 11:35:14;;;;;;;19.63;13.17;;;0.70;99.90;;;;;;5109556;28;20207;-60
2024/01/09 11:37:45;;;;;;;20.37;13.10;;;1.00;99.90;;;;;;5109518;28;20192;-63
2024/01/09 11:40:15;;;;;;;24.77;13.70;;;1.20;99.90;;;;;;5109341;28;20250;-62
2024/01/09 11:42:46;;;;;;;25.33;14.17;;;1.20;99.90;;;;;;5109406;28;20270;-62
2024/01/09 11:45:21;;;;;;;20.57;13.77;;;1.20;99.90;;;;;;5109254;28;20197;-62
2024/01/09 11:47:50;;;;;;;22.33;12.33;;;1.00;99.90;;;;;;5109473;28;20244;-62
2024/01/09 11:50:18;;;;;;;21.97;13.60;;;1.10;99.90;;;;;;5107618;28;20192;-62
2024/01/09 11:52:49;;;;;;;21.43;13.17;;;1.20;99.90;;;;;;5109163;28;21140;-63
2024/01/09 11:55:18;;;;;;;22.93;14.17;;;1.20;99.90;;;;;;5109587;28;20731;-61
2024/01/09 11:57:48;;;;;;;25.10;14.47;;;1.20;99.90;;;;;;5090742;28;20733;-62
2024/01/09 12:00:17;;;;;;;20.93;12.83;;;1.20;99.90;;;;;;5090806;28;20204;-63
2024/01/09 12:02:45;;;;;;;20.40;13.30;;;1.10;99.90;;;;;;5108924;28;20260;-62
2024/01/09 12:05:13;;;;;;;22.17;14.10;;;1.30;99.90;;;;;;5108825;28;20195;-63
2024/01/09 12:07:42;;;;;;;15.97;12.07;;;1.30;99.90;;;;;;5108907;28;20685;-64
2024/01/09 12:10:10;;;;;;;21.50;13.77;;;1.30;99.90;;;;;;5108877;28;20220;-63
2024/01/09 12:12:44;;;;;;;25.33;14.80;;;1.20;99.90;;;;;;5108701;28;20217;-63
2024/01/09 12:15:19;;;;;;;20.20;13.40;;;1.20;99.90;;;;;;5108454;28;20217;-61
2024/01/09 12:17:57;;;;;;;18.37;11.93;;;1.10;99.90;;;;;;5110815;28;20199;-63
2024/01/09 12:20:27;;;;;;;21.57;12.60;;;1.10;99.90;;;;;;5113347;28;20190;-62
2024/01/09 12:22:56;;;;;;;19.07;12.57;;;1.00;99.90;;;;;;5113079;28;20723;-63
2024/01/09 12:25:25;;;;;;;16.53;11.80;;;1.00;99.90;;;;;;5112714;28;20568;-63
2024/01/09 12:27:53;;;;;;;19.60;12.17;;;0.70;99.90;;;;;;5112780;28;20191;-63
2024/01/09 12:30:24;;;;;;;16.20;11.00;;;0.70;99.90;;;;;;5112614;28;20196;-62
2024/01/09 12:32:53;;;;;;;20.50;12.13;;;0.50;99.90;;;;;;5093700;28;20326;-62
2024/01/09 12:35:22;;;;;;;21.60;13.40;;;0.40;99.90;;;;;;5112390;28;20242;-63
2024/01/09 12:37:50;;;;;;;21.70;12.40;;;0.50;99.90;;;;;;5112455;28;20200;-63
2024/01/09 12:40:19;;;;;;;18.50;12.97;;;0.60;99.90;;;;;;5112252;28;20231;-63